createdAt,value
2023-03-13T00:00:14.228Z,79.50
2023-03-13T00:01:14.228Z,79.50
2023-03-13T00:02:14.284Z,79.50
2023-03-13T00:03:14.196Z,79.61
2023-03-13T00:04:14.226Z,79.71
2023-03-13T00:05:14.252Z,79.71
2023-03-13T00:06:14.166Z,79.82
2023-03-13T00:07:14.178Z,79.78
2023-03-13T00:08:14.144Z,79.78
2023-03-13T00:09:14.190Z,79.57
2023-03-13T00:10:14.122Z,79.57
2023-03-13T00:11:14.147Z,79.47
2023-03-13T00:12:14.094Z,79.57
2023-03-13T00:13:14.092Z,79.57
2023-03-13T00:14:14.143Z,79.68
2023-03-13T00:15:14.071Z,79.68
2023-03-13T00:16:14.131Z,79.78
2023-03-13T00:17:14.052Z,79.78
2023-03-13T00:18:14.032Z,79.88
2023-03-13T00:19:14.065Z,79.98
2023-03-13T00:20:14.010Z,79.98
2023-03-13T00:21:14.089Z,80.08
2023-03-13T00:22:13.992Z,80.19
2023-03-13T00:23:13.983Z,80.29
2023-03-13T00:24:13.983Z,80.49
2023-03-13T00:25:13.993Z,80.69
2023-03-13T00:26:13.994Z,80.90
2023-03-13T00:27:13.991Z,81.10
2023-03-13T00:28:13.929Z,81.21
2023-03-13T00:29:13.946Z,81.41
2023-03-13T00:30:13.912Z,81.72
2023-03-13T00:31:13.952Z,82.03
2023-03-13T00:32:13.930Z,82.23
2023-03-13T00:33:13.864Z,82.34
2023-03-13T00:34:13.983Z,82.43
2023-03-13T00:35:13.850Z,82.64
2023-03-13T00:36:13.845Z,82.64
2023-03-13T00:37:13.827Z,82.75
2023-03-13T00:38:18.554Z,82.84
2023-03-13T00:39:13.811Z,82.95
2023-03-13T00:40:13.795Z,83.15
2023-03-13T00:41:13.837Z,83.29
2023-03-13T00:42:13.819Z,83.60
2023-03-13T00:43:13.819Z,83.70
2023-03-13T00:44:13.808Z,83.91
2023-03-13T00:45:13.743Z,84.11
2023-03-13T00:46:13.806Z,84.31
2023-03-13T00:47:13.718Z,84.63
2023-03-13T00:48:13.711Z,84.83
2023-03-13T00:49:13.729Z,85.24
2023-03-13T00:50:13.688Z,85.44
2023-03-13T00:51:13.680Z,85.64
2023-03-13T00:52:13.669Z,85.96
2023-03-13T00:53:13.656Z,86.26
2023-03-13T00:54:13.695Z,86.36
2023-03-13T00:55:13.628Z,86.67
2023-03-13T00:56:13.627Z,86.77
2023-03-13T00:57:13.609Z,87.08
2023-03-13T00:58:13.609Z,87.38
2023-03-13T00:59:13.635Z,87.73
2023-03-13T01:00:13.598Z,87.84
2023-03-13T01:01:13.568Z,88.04
2023-03-13T01:02:13.641Z,88.24
2023-03-13T01:03:13.677Z,88.35
2023-03-13T01:04:13.544Z,88.56
2023-03-13T01:05:13.590Z,88.76
2023-03-13T01:06:13.521Z,89.06
2023-03-13T01:07:13.502Z,89.27
2023-03-13T01:08:13.500Z,89.47
2023-03-13T01:09:13.486Z,89.58
2023-03-13T01:10:13.525Z,89.68
2023-03-13T01:11:13.483Z,89.78
2023-03-13T01:12:13.460Z,90.03
2023-03-13T01:13:13.446Z,90.13
2023-03-13T01:14:13.465Z,90.23
2023-03-13T01:15:13.423Z,90.34
2023-03-13T01:16:13.432Z,90.44
2023-03-13T01:17:13.395Z,90.44
2023-03-13T01:18:13.393Z,90.54
2023-03-13T01:19:13.692Z,90.64
2023-03-13T01:20:13.389Z,90.64
2023-03-13T01:21:13.365Z,90.75
2023-03-13T01:22:13.356Z,90.75
2023-03-13T01:23:13.347Z,90.84
2023-03-13T01:24:13.389Z,90.75
2023-03-13T01:25:13.326Z,90.75
2023-03-13T01:26:13.305Z,90.75
2023-03-13T01:27:13.297Z,90.75
2023-03-13T01:28:13.288Z,90.84
2023-03-13T01:29:13.296Z,90.84
2023-03-13T01:30:13.266Z,90.84
2023-03-13T01:31:13.295Z,90.84
2023-03-13T01:32:13.277Z,91.05
2023-03-13T01:33:13.224Z,91.16
2023-03-13T01:34:13.252Z,91.16
2023-03-13T01:35:13.217Z,91.36
2023-03-13T01:36:13.214Z,91.36
2023-03-13T01:37:13.186Z,91.56
2023-03-13T01:38:13.206Z,91.67
2023-03-13T01:39:13.197Z,91.97
2023-03-13T01:40:13.183Z,92.28
2023-03-13T01:41:13.148Z,92.49
2023-03-13T01:42:13.136Z,92.79
2023-03-13T01:43:17.595Z,93.10
2023-03-13T01:44:14.155Z,93.41
2023-03-13T01:45:13.095Z,93.71
2023-03-13T01:46:13.115Z,93.92
2023-03-13T01:47:13.077Z,94.17
2023-03-13T01:48:13.081Z,94.48
2023-03-13T01:49:13.084Z,94.78
2023-03-13T01:50:13.059Z,94.99
2023-03-13T01:51:13.038Z,95.29
2023-03-13T01:52:13.062Z,95.50
2023-03-13T01:53:13.014Z,95.70
2023-03-13T01:54:13.048Z,95.91
2023-03-13T01:55:12.996Z,96.12
2023-03-13T01:56:12.987Z,96.42
2023-03-13T01:57:12.983Z,96.63
2023-03-13T01:58:12.967Z,96.83
2023-03-13T01:59:12.947Z,97.04
2023-03-13T02:00:12.985Z,97.29
2023-03-13T02:01:13.002Z,97.49
2023-03-13T02:02:12.924Z,97.70
2023-03-13T02:03:12.979Z,97.80
2023-03-13T02:04:12.948Z,98.00
2023-03-13T02:05:12.883Z,98.11
2023-03-13T02:06:12.876Z,98.32
2023-03-13T02:07:12.865Z,98.42
2023-03-13T02:08:12.855Z,98.52
2023-03-13T02:09:12.916Z,98.72
2023-03-13T02:10:12.875Z,98.83
2023-03-13T02:11:12.825Z,98.93
2023-03-13T02:12:12.828Z,99.03
2023-03-13T02:13:12.802Z,99.13
2023-03-13T02:14:12.783Z,99.24
2023-03-13T02:15:12.780Z,99.34
2023-03-13T02:16:12.900Z,99.44
2023-03-13T02:17:12.772Z,99.54
2023-03-13T02:18:12.746Z,99.65
2023-03-13T02:19:12.724Z,99.75
2023-03-13T02:20:12.722Z,99.85
2023-03-13T02:21:12.714Z,99.95
2023-03-13T02:22:12.732Z,99.99
2023-03-13T02:23:12.688Z,99.99
2023-03-13T02:24:12.696Z,99.99
2023-03-13T02:25:12.664Z,99.99
2023-03-13T02:26:12.652Z,99.99
2023-03-13T02:27:12.642Z,99.99
2023-03-13T02:28:12.709Z,99.99
2023-03-13T02:29:12.622Z,99.99
2023-03-13T02:30:12.612Z,99.99
2023-03-13T02:31:12.608Z,99.99
2023-03-13T02:32:12.622Z,99.99
2023-03-13T02:33:12.584Z,99.99
2023-03-13T02:34:12.571Z,99.99
2023-03-13T02:35:12.568Z,99.99
2023-03-13T02:36:12.553Z,99.99
2023-03-13T02:37:12.582Z,99.99
2023-03-13T02:38:12.534Z,99.99
2023-03-13T02:39:12.590Z,99.99
2023-03-13T02:40:12.502Z,99.99
2023-03-13T02:41:12.521Z,99.99
2023-03-13T02:42:12.490Z,99.99
2023-03-13T02:43:12.478Z,99.99
2023-03-13T02:44:12.461Z,99.99
2023-03-13T02:45:12.453Z,99.99
2023-03-13T02:46:12.457Z,99.99
2023-03-13T02:47:12.473Z,99.99
2023-03-13T02:48:12.429Z,99.99
2023-03-13T02:49:12.414Z,99.99
2023-03-13T02:50:12.408Z,99.99
2023-03-13T02:51:12.400Z,99.99
2023-03-13T02:52:12.373Z,99.99
2023-03-13T02:53:12.394Z,99.99
2023-03-13T02:54:12.358Z,99.99
2023-03-13T02:55:12.347Z,99.99
2023-03-13T02:56:12.336Z,99.99
2023-03-13T02:57:12.316Z,99.99
2023-03-13T02:58:12.463Z,99.99
2023-03-13T02:59:12.351Z,99.99
2023-03-13T03:00:12.297Z,99.99
2023-03-13T03:01:12.284Z,99.99
2023-03-13T03:02:12.276Z,99.99
2023-03-13T03:03:12.256Z,99.99
2023-03-13T03:04:12.284Z,99.99
2023-03-13T03:05:12.293Z,99.99
2023-03-13T03:06:12.240Z,99.99
2023-03-13T03:07:12.221Z,99.99
2023-03-13T03:08:12.229Z,99.99
2023-03-13T03:09:12.202Z,99.99
2023-03-13T03:10:12.187Z,99.99
2023-03-13T03:11:12.199Z,99.99
2023-03-13T03:12:12.172Z,99.99
2023-03-13T03:13:12.147Z,99.99
2023-03-13T03:14:12.188Z,99.99
2023-03-13T03:15:12.132Z,99.99
2023-03-13T03:16:12.151Z,99.99
2023-03-13T03:17:12.108Z,99.99
2023-03-13T03:18:12.107Z,99.99
2023-03-13T03:19:12.137Z,99.99
2023-03-13T03:20:12.289Z,99.99
2023-03-13T03:21:12.064Z,99.99
2023-03-13T03:22:12.063Z,99.99
2023-03-13T03:23:12.041Z,99.99
2023-03-13T03:24:12.069Z,99.99
2023-03-13T03:25:12.056Z,99.99
2023-03-13T03:26:12.018Z,99.99
2023-03-13T03:27:12.014Z,99.99
2023-03-13T03:28:11.990Z,99.99
2023-03-13T03:29:11.985Z,99.99
2023-03-13T03:30:11.996Z,99.99
2023-03-13T03:31:11.970Z,99.99
2023-03-13T03:32:11.945Z,99.99
2023-03-13T03:33:11.928Z,99.99
2023-03-13T03:34:11.925Z,99.99
2023-03-13T03:35:11.941Z,99.99
2023-03-13T03:36:11.922Z,99.99
2023-03-13T03:37:11.891Z,99.99
2023-03-13T03:38:11.875Z,99.99
2023-03-13T03:39:11.870Z,99.99
2023-03-13T03:40:11.876Z,99.99
2023-03-13T03:41:11.842Z,99.99
2023-03-13T03:42:11.835Z,99.99
2023-03-13T03:43:11.816Z,99.99
2023-03-13T03:44:11.813Z,99.99
2023-03-13T03:45:11.828Z,99.99
2023-03-13T03:46:11.857Z,99.99
2023-03-13T03:47:11.789Z,99.99
2023-03-13T03:48:11.847Z,99.99
2023-03-13T03:49:11.805Z,99.99
2023-03-13T03:50:11.752Z,99.99
2023-03-13T03:51:11.736Z,99.99
2023-03-13T03:52:11.774Z,99.99
2023-03-13T03:53:11.706Z,99.99
2023-03-13T03:54:11.694Z,99.99
2023-03-13T03:55:11.674Z,99.99
2023-03-13T03:56:11.683Z,99.99
2023-03-13T03:57:11.669Z,99.99
2023-03-13T03:58:11.697Z,99.99
2023-03-13T03:59:11.706Z,99.99
2023-03-13T04:00:11.626Z,99.99
2023-03-13T04:01:11.639Z,99.99
2023-03-13T04:02:11.685Z,99.99
2023-03-13T04:03:11.622Z,99.99
2023-03-13T04:04:11.592Z,99.99
2023-03-13T04:05:11.583Z,99.99
2023-03-13T04:06:11.594Z,99.99
2023-03-13T04:07:11.598Z,99.99
2023-03-13T04:08:11.541Z,99.99
2023-03-13T04:09:11.537Z,99.99
2023-03-13T04:10:11.558Z,99.99
2023-03-13T04:11:11.515Z,99.99
2023-03-13T04:12:11.508Z,99.99
2023-03-13T04:13:11.526Z,99.99
2023-03-13T04:14:11.486Z,99.99
2023-03-13T04:15:11.469Z,99.99
2023-03-13T04:16:11.509Z,99.99
2023-03-13T04:17:11.438Z,99.99
2023-03-13T04:18:11.481Z,99.99
2023-03-13T04:19:11.448Z,99.99
2023-03-13T04:20:11.421Z,99.99
2023-03-13T04:21:11.401Z,99.99
2023-03-13T04:22:11.414Z,99.99
2023-03-13T04:23:11.440Z,99.99
2023-03-13T04:24:11.389Z,99.99
2023-03-13T04:25:11.374Z,99.99
2023-03-13T04:26:11.380Z,99.99
2023-03-13T04:27:11.353Z,99.99
2023-03-13T04:28:11.408Z,99.99
2023-03-13T04:29:11.331Z,99.99
2023-03-13T04:30:11.322Z,99.99
2023-03-13T04:31:11.341Z,99.99
2023-03-13T04:32:11.331Z,99.99
2023-03-13T04:33:11.332Z,99.99
2023-03-13T04:34:11.304Z,99.99
2023-03-13T04:35:11.314Z,99.99
2023-03-13T04:36:11.326Z,99.99
2023-03-13T04:37:11.251Z,99.99
2023-03-13T04:38:11.238Z,99.99
2023-03-13T04:39:11.269Z,99.99
2023-03-13T04:40:11.250Z,99.99
2023-03-13T04:41:11.200Z,99.99
2023-03-13T04:42:11.181Z,99.99
2023-03-13T04:43:11.188Z,99.99
2023-03-13T04:44:11.159Z,99.99
2023-03-13T04:45:11.191Z,99.99
2023-03-13T04:46:11.243Z,99.99
2023-03-13T04:47:11.141Z,99.99
2023-03-13T04:48:11.121Z,99.99
2023-03-13T04:49:11.110Z,99.99
2023-03-13T04:50:11.178Z,99.99
2023-03-13T04:51:11.087Z,99.99
2023-03-13T04:52:11.103Z,99.99
2023-03-13T04:53:11.074Z,99.99
2023-03-13T04:54:11.053Z,99.99
2023-03-13T04:55:11.095Z,99.99
2023-03-13T04:56:11.029Z,99.99
2023-03-13T04:57:11.041Z,99.99
2023-03-13T04:58:11.026Z,99.99
2023-03-13T04:59:11.008Z,99.99
2023-03-13T05:00:10.988Z,99.99
2023-03-13T05:01:11.087Z,99.99
2023-03-13T05:02:10.965Z,99.99
2023-03-13T05:03:10.963Z,99.99
2023-03-13T05:04:10.938Z,99.99
2023-03-13T05:05:11.019Z,99.99
2023-03-13T05:06:10.924Z,99.99
2023-03-13T05:07:10.920Z,99.99
2023-03-13T05:08:11.027Z,99.99
2023-03-13T05:09:10.896Z,99.99
2023-03-13T05:10:13.668Z,99.99
2023-03-13T05:11:10.888Z,99.99
2023-03-13T05:12:10.849Z,99.99
2023-03-13T05:13:10.868Z,99.99
2023-03-13T05:14:10.840Z,99.99
2023-03-13T05:15:10.855Z,99.99
2023-03-13T05:16:10.847Z,99.99
2023-03-13T05:17:10.808Z,99.99
2023-03-13T05:18:10.927Z,99.99
2023-03-13T05:19:10.778Z,99.99
2023-03-13T05:20:10.799Z,99.99
2023-03-13T05:21:10.760Z,99.99
2023-03-13T05:22:10.746Z,99.99
2023-03-13T05:23:10.743Z,99.99
2023-03-13T05:24:10.782Z,99.99
2023-03-13T05:25:10.730Z,99.99
2023-03-13T05:26:10.702Z,99.99
2023-03-13T05:27:10.732Z,99.99
2023-03-13T05:28:10.719Z,99.99
2023-03-13T05:29:10.695Z,99.99
2023-03-13T05:30:10.674Z,99.99
2023-03-13T05:31:10.834Z,99.99
2023-03-13T05:32:10.648Z,99.99
2023-03-13T05:33:10.812Z,99.99
2023-03-13T05:34:10.619Z,99.99
2023-03-13T05:35:10.609Z,99.99
2023-03-13T05:36:10.597Z,99.99
2023-03-13T05:37:10.602Z,99.99
2023-03-13T05:38:10.578Z,99.99
2023-03-13T05:39:10.596Z,99.99
2023-03-13T05:40:10.559Z,99.99
2023-03-13T05:41:10.549Z,99.99
2023-03-13T05:42:10.534Z,99.99
2023-03-13T05:43:13.335Z,99.99
2023-03-13T05:44:10.508Z,99.99
2023-03-13T05:45:10.545Z,99.99
2023-03-13T05:46:10.609Z,99.99
2023-03-13T05:47:10.495Z,99.99
2023-03-13T05:48:10.527Z,99.99
2023-03-13T05:49:10.457Z,99.99
2023-03-13T05:50:10.454Z,99.99
2023-03-13T05:51:10.437Z,99.99
2023-03-13T05:52:10.430Z,99.99
2023-03-13T05:53:10.422Z,99.99
2023-03-13T05:54:10.425Z,99.99
2023-03-13T05:55:10.395Z,99.99
2023-03-13T05:56:10.375Z,99.99
2023-03-13T05:57:10.374Z,99.99
2023-03-13T05:58:10.353Z,99.99
2023-03-13T05:59:10.394Z,99.99
2023-03-13T06:00:10.330Z,99.99
2023-03-13T06:01:10.326Z,99.99
2023-03-13T06:02:10.312Z,99.99
2023-03-13T06:03:11.990Z,99.99
2023-03-13T06:04:12.471Z,99.99
2023-03-13T06:05:10.426Z,99.99
2023-03-13T06:06:10.305Z,99.99
2023-03-13T06:07:10.253Z,99.99
2023-03-13T06:08:10.369Z,99.95
2023-03-13T06:09:10.231Z,99.75
2023-03-13T06:10:10.237Z,99.54
2023-03-13T06:11:10.218Z,99.44
2023-03-13T06:12:10.199Z,99.24
2023-03-13T06:13:19.397Z,99.14
2023-03-13T06:14:11.208Z,99.14
2023-03-13T06:15:12.159Z,99.04
2023-03-13T06:16:10.214Z,99.14
2023-03-13T06:17:10.151Z,99.04
2023-03-13T06:18:10.141Z,99.04
2023-03-13T06:19:10.149Z,99.04
2023-03-13T06:20:10.193Z,99.04
2023-03-13T06:21:10.111Z,99.04
2023-03-13T06:22:10.087Z,99.04
2023-03-13T06:23:10.099Z,98.93
2023-03-13T06:24:10.068Z,98.93
2023-03-13T06:25:10.065Z,98.48
2023-03-13T06:26:10.107Z,98.27
2023-03-13T06:27:10.037Z,97.97
2023-03-13T06:28:10.027Z,97.87
2023-03-13T06:29:10.018Z,97.77
2023-03-13T06:30:10.034Z,97.87
2023-03-13T06:31:10.095Z,97.87
2023-03-13T06:32:10.122Z,97.77
2023-03-13T06:33:10.059Z,97.66
2023-03-13T06:34:09.959Z,97.56
2023-03-13T06:35:10.003Z,97.36
2023-03-13T06:36:10.032Z,97.00
2023-03-13T06:37:09.937Z,97.00
2023-03-13T06:38:09.920Z,96.80
2023-03-13T06:39:09.959Z,96.70
2023-03-13T06:40:09.900Z,96.60
2023-03-13T06:41:09.900Z,96.50
2023-03-13T06:42:09.870Z,96.39
2023-03-13T06:43:09.880Z,96.30
2023-03-13T06:44:09.885Z,96.19
2023-03-13T06:45:09.891Z,96.09
2023-03-13T06:46:09.828Z,95.98
2023-03-13T06:47:09.902Z,95.68
2023-03-13T06:48:09.849Z,95.33
2023-03-13T06:49:09.807Z,95.13
2023-03-13T06:50:09.799Z,95.13
2023-03-13T06:51:09.788Z,95.03
2023-03-13T06:52:09.791Z,94.72
2023-03-13T06:53:09.754Z,94.42
2023-03-13T06:54:09.769Z,94.42
2023-03-13T06:55:09.782Z,94.31
2023-03-13T06:56:09.769Z,94.01
2023-03-13T06:57:09.756Z,94.01
2023-03-13T06:58:18.840Z,93.90
2023-03-13T06:59:10.702Z,93.80
2023-03-13T07:00:09.679Z,93.70
2023-03-13T07:01:09.720Z,93.55
2023-03-13T07:02:09.658Z,93.45
2023-03-13T07:03:09.687Z,93.35
2023-03-13T07:04:09.704Z,93.25
2023-03-13T07:05:09.627Z,93.15
2023-03-13T07:06:09.624Z,92.74
2023-03-13T07:07:14.954Z,92.74
2023-03-13T07:08:13.803Z,92.54
2023-03-13T07:09:09.600Z,92.44
2023-03-13T07:10:09.592Z,92.54
2023-03-13T07:11:09.587Z,92.54
2023-03-13T07:12:09.553Z,92.44
2023-03-13T07:13:09.584Z,92.44
2023-03-13T07:14:17.058Z,92.44
2023-03-13T07:15:10.526Z,92.23
2023-03-13T07:16:09.678Z,92.03
2023-03-13T07:17:09.592Z,92.03
2023-03-13T07:18:09.491Z,92.03
2023-03-13T07:19:09.514Z,91.83
2023-03-13T07:20:09.587Z,91.48
2023-03-13T07:21:09.469Z,91.48
2023-03-13T07:22:09.455Z,91.48
2023-03-13T07:23:09.473Z,91.52
2023-03-13T07:24:09.514Z,91.27
2023-03-13T07:25:09.472Z,91.27
2023-03-13T07:26:09.412Z,91.27
2023-03-13T07:27:09.426Z,91.38
2023-03-13T07:28:09.386Z,91.27
2023-03-13T07:29:09.416Z,91.17
2023-03-13T07:30:09.364Z,91.07
2023-03-13T07:31:09.345Z,91.07
2023-03-13T07:32:09.420Z,91.17
2023-03-13T07:33:09.336Z,91.07
2023-03-13T07:34:09.336Z,90.86
2023-03-13T07:35:09.347Z,90.86
2023-03-13T07:36:09.355Z,90.77
2023-03-13T07:37:09.291Z,90.46
2023-03-13T07:38:09.273Z,90.25
2023-03-13T07:39:09.256Z,90.25
2023-03-13T07:40:09.249Z,90.16
2023-03-13T07:41:10.960Z,90.16
2023-03-13T07:42:11.195Z,90.16
2023-03-13T07:43:09.221Z,89.95
2023-03-13T07:44:09.486Z,89.85
2023-03-13T07:45:09.246Z,89.95
2023-03-13T07:46:09.456Z,89.95
2023-03-13T07:47:09.231Z,89.85
2023-03-13T07:48:09.163Z,89.75
2023-03-13T07:49:09.150Z,89.20
2023-03-13T07:50:09.227Z,89.20
2023-03-13T07:51:09.152Z,89.00
2023-03-13T07:52:09.102Z,88.89
2023-03-13T07:53:09.137Z,88.89
2023-03-13T07:54:09.135Z,88.69
2023-03-13T07:55:09.093Z,88.59
2023-03-13T07:56:10.551Z,88.08
2023-03-13T07:57:09.241Z,88.08
2023-03-13T07:58:09.048Z,88.28
2023-03-13T07:59:09.481Z,88.28
2023-03-13T08:00:09.023Z,88.28
2023-03-13T08:01:09.064Z,87.63
2023-03-13T08:02:09.005Z,87.63
2023-03-13T08:03:09.011Z,87.73
2023-03-13T08:04:11.356Z,87.98
2023-03-13T08:05:09.083Z,87.98
2023-03-13T08:06:09.402Z,88.08
2023-03-13T08:07:09.216Z,87.87
2023-03-13T08:08:08.973Z,87.98
2023-03-13T08:09:08.933Z,87.87
2023-03-13T08:10:08.962Z,87.87
2023-03-13T08:11:09.118Z,87.67
2023-03-13T08:12:09.013Z,87.77
2023-03-13T08:13:09.029Z,87.67
2023-03-13T08:14:08.881Z,87.47
2023-03-13T08:15:08.873Z,87.26
2023-03-13T08:16:09.152Z,87.16
2023-03-13T08:17:08.888Z,87.02
2023-03-13T08:18:08.819Z,87.12
2023-03-13T08:19:08.949Z,86.71
2023-03-13T08:20:08.814Z,86.61
2023-03-13T08:21:08.789Z,86.51
2023-03-13T08:22:08.800Z,86.10
2023-03-13T08:23:08.768Z,86.21
2023-03-13T08:24:10.831Z,86.10
2023-03-13T08:25:08.750Z,85.80
2023-03-13T08:26:08.730Z,85.60
2023-03-13T08:27:08.740Z,85.60
2023-03-13T08:28:08.708Z,85.49
2023-03-13T08:29:08.744Z,85.49
2023-03-13T08:30:08.689Z,85.39
2023-03-13T08:31:08.772Z,85.60
2023-03-13T08:32:08.667Z,85.39
2023-03-13T08:33:08.733Z,84.99
2023-03-13T08:34:08.693Z,84.95
2023-03-13T08:35:08.762Z,84.64
2023-03-13T08:36:08.627Z,84.54
2023-03-13T08:37:08.630Z,84.74
2023-03-13T08:38:08.608Z,85.05
2023-03-13T08:39:08.597Z,84.84
2023-03-13T08:40:08.671Z,85.25
2023-03-13T08:41:08.576Z,84.44
2023-03-13T08:42:08.570Z,84.13
2023-03-13T08:43:08.557Z,84.23
2023-03-13T08:44:08.589Z,84.23
2023-03-13T08:45:08.527Z,84.13
2023-03-13T08:46:08.637Z,84.34
2023-03-13T08:47:08.520Z,84.34
2023-03-13T08:48:08.488Z,84.44
2023-03-13T08:49:08.509Z,84.44
2023-03-13T08:50:08.469Z,84.44
2023-03-13T08:51:08.473Z,84.44
2023-03-13T08:52:08.527Z,84.23
2023-03-13T08:53:08.460Z,84.23
2023-03-13T08:54:08.512Z,84.03
2023-03-13T08:55:08.515Z,83.73
2023-03-13T08:56:08.420Z,83.99
2023-03-13T08:57:08.413Z,83.93
2023-03-13T08:58:08.391Z,83.48
2023-03-13T08:59:08.371Z,83.48
2023-03-13T09:00:08.374Z,83.59
2023-03-13T09:01:08.452Z,83.69
2023-03-13T09:02:08.375Z,83.73
2023-03-13T09:03:08.408Z,83.83
2023-03-13T09:04:08.426Z,84.13
2023-03-13T09:05:08.311Z,83.83
2023-03-13T09:06:08.302Z,83.69
2023-03-13T09:07:08.354Z,83.89
2023-03-13T09:08:08.292Z,84.20
2023-03-13T09:09:08.291Z,84.20
2023-03-13T09:10:08.274Z,84.20
2023-03-13T09:11:08.253Z,84.30
2023-03-13T09:12:15.516Z,83.79
2023-03-13T09:13:09.263Z,83.69
2023-03-13T09:14:08.253Z,83.54
2023-03-13T09:15:08.238Z,83.54
2023-03-13T09:16:08.375Z,83.45
2023-03-13T09:17:08.186Z,83.34
2023-03-13T09:18:08.209Z,83.75
2023-03-13T09:19:08.172Z,83.75
2023-03-13T09:20:08.152Z,83.14
2023-03-13T09:21:08.194Z,82.94
2023-03-13T09:22:08.132Z,82.64
2023-03-13T09:23:08.112Z,82.39
2023-03-13T09:24:08.115Z,82.29
2023-03-13T09:25:08.133Z,82.70
2023-03-13T09:26:08.084Z,82.09
2023-03-13T09:27:08.076Z,82.09
2023-03-13T09:28:08.063Z,82.09
2023-03-13T09:29:08.058Z,81.99
2023-03-13T09:30:08.044Z,81.78
2023-03-13T09:31:08.153Z,81.58
2023-03-13T09:32:08.133Z,81.48
2023-03-13T09:33:08.012Z,81.64
2023-03-13T09:34:08.006Z,81.74
2023-03-13T09:35:07.984Z,81.74
2023-03-13T09:36:08.142Z,81.85
2023-03-13T09:37:07.969Z,81.85
2023-03-13T09:38:07.993Z,81.85
2023-03-13T09:39:07.959Z,81.54
2023-03-13T09:40:09.660Z,81.34
2023-03-13T09:41:07.928Z,81.44
2023-03-13T09:42:07.978Z,81.85
2023-03-13T09:43:07.945Z,81.54
2023-03-13T09:44:07.928Z,81.95
2023-03-13T09:45:07.896Z,81.64
2023-03-13T09:46:07.964Z,81.50
2023-03-13T09:47:07.862Z,81.60
2023-03-13T09:48:07.858Z,80.90
2023-03-13T09:49:07.836Z,80.90
2023-03-13T09:50:07.884Z,80.69
2023-03-13T09:51:07.830Z,80.45
2023-03-13T09:52:07.807Z,80.55
2023-03-13T09:53:07.807Z,80.35
2023-03-13T09:54:07.873Z,80.25
2023-03-13T09:55:07.840Z,80.05
2023-03-13T09:56:07.760Z,80.15
2023-03-13T09:57:07.754Z,80.35
2023-03-13T09:58:07.741Z,80.45
2023-03-13T09:59:10.377Z,80.45
2023-03-13T10:00:10.027Z,80.15
2023-03-13T10:01:07.706Z,80.35
2023-03-13T10:02:07.807Z,80.65
2023-03-13T10:03:07.681Z,81.06
2023-03-13T10:04:07.718Z,80.69
2023-03-13T10:05:07.700Z,81.20
2023-03-13T10:06:07.649Z,81.30
2023-03-13T10:07:07.628Z,81.81
2023-03-13T10:08:07.625Z,81.91
2023-03-13T10:09:07.607Z,82.11
2023-03-13T10:10:08.116Z,82.01
2023-03-13T10:11:07.657Z,82.52
2023-03-13T10:12:07.628Z,82.38
2023-03-13T10:13:07.567Z,82.17
2023-03-13T10:14:07.564Z,82.17
2023-03-13T10:15:07.547Z,82.28
2023-03-13T10:16:14.213Z,82.28
2023-03-13T10:17:07.519Z,82.68
2023-03-13T10:18:07.520Z,82.68
2023-03-13T10:19:07.504Z,82.68
2023-03-13T10:20:07.500Z,82.68
2023-03-13T10:21:07.495Z,82.68
2023-03-13T10:22:07.569Z,82.89
2023-03-13T10:23:07.493Z,82.28
2023-03-13T10:24:07.454Z,82.78
2023-03-13T10:25:10.641Z,82.78
2023-03-13T10:26:07.428Z,82.89
2023-03-13T10:27:07.417Z,82.68
2023-03-13T10:28:07.409Z,82.48
2023-03-13T10:29:07.399Z,81.91
2023-03-13T10:30:07.402Z,82.01
2023-03-13T10:31:09.689Z,82.21
2023-03-13T10:32:07.409Z,82.31
2023-03-13T10:33:07.576Z,82.52
2023-03-13T10:34:07.346Z,82.72
2023-03-13T10:35:07.327Z,82.92
2023-03-13T10:36:07.579Z,82.62
2023-03-13T10:37:07.310Z,82.82
2023-03-13T10:38:07.298Z,83.03
2023-03-13T10:39:07.319Z,82.89
2023-03-13T10:40:07.318Z,82.68
2023-03-13T10:41:07.262Z,82.68
2023-03-13T10:42:07.248Z,82.17
2023-03-13T10:43:07.237Z,82.17
2023-03-13T10:44:07.239Z,82.07
2023-03-13T10:45:07.279Z,81.67
2023-03-13T10:46:07.308Z,81.43
2023-03-13T10:47:07.269Z,80.55
2023-03-13T10:48:07.188Z,80.31
2023-03-13T10:49:07.231Z,80.11
2023-03-13T10:50:07.188Z,80.11
2023-03-13T10:51:07.158Z,80.21
2023-03-13T10:52:07.152Z,80.11
2023-03-13T10:53:07.139Z,80.21
2023-03-13T10:54:07.188Z,80.31
2023-03-13T10:55:07.156Z,80.01
2023-03-13T10:56:07.105Z,80.21
2023-03-13T10:57:07.088Z,80.11
2023-03-13T10:58:07.096Z,80.21
2023-03-13T10:59:07.069Z,79.80
2023-03-13T11:00:07.062Z,79.50
2023-03-13T11:01:07.219Z,79.80
2023-03-13T11:02:07.049Z,79.20
2023-03-13T11:03:08.931Z,79.30
2023-03-13T11:04:07.019Z,79.40
2023-03-13T11:05:07.010Z,78.89
2023-03-13T11:06:07.074Z,78.75
2023-03-13T11:07:06.990Z,79.16
2023-03-13T11:08:06.989Z,79.06
2023-03-13T11:09:06.976Z,78.55
2023-03-13T11:10:06.968Z,78.45
2023-03-13T11:11:06.979Z,78.55
2023-03-13T11:12:07.060Z,78.55
2023-03-13T11:13:06.936Z,77.91
2023-03-13T11:14:06.908Z,77.71
2023-03-13T11:15:06.925Z,77.30
2023-03-13T11:16:06.909Z,76.90
2023-03-13T11:17:06.868Z,77.17
2023-03-13T11:18:06.893Z,77.26
2023-03-13T11:19:06.856Z,76.56
2023-03-13T11:20:06.882Z,76.46
2023-03-13T11:21:17.832Z,75.75
2023-03-13T11:22:07.924Z,75.85
2023-03-13T11:23:10.864Z,75.75
2023-03-13T11:24:06.801Z,75.85
2023-03-13T11:25:06.778Z,76.15
2023-03-13T11:26:06.787Z,75.85
2023-03-13T11:27:06.880Z,75.45
2023-03-13T11:28:06.759Z,75.45
2023-03-13T11:29:06.742Z,75.55
2023-03-13T11:30:06.747Z,75.75
2023-03-13T11:31:08.900Z,74.74
2023-03-13T11:32:08.076Z,74.23
2023-03-13T11:33:06.795Z,74.13
2023-03-13T11:34:06.699Z,73.63
2023-03-13T11:35:06.669Z,73.43
2023-03-13T11:36:06.725Z,73.49
2023-03-13T11:37:06.719Z,73.39
2023-03-13T11:38:08.033Z,73.19
2023-03-13T11:39:06.666Z,73.08
2023-03-13T11:40:06.628Z,72.88
2023-03-13T11:41:06.742Z,73.19
2023-03-13T11:42:06.600Z,72.88
2023-03-13T11:43:21.731Z,72.88
2023-03-13T11:44:07.651Z,72.88
2023-03-13T11:45:06.569Z,73.19
2023-03-13T11:46:06.704Z,73.08
2023-03-13T11:47:06.581Z,72.34
2023-03-13T11:48:06.540Z,71.53
2023-03-13T11:49:06.561Z,71.87
2023-03-13T11:50:06.517Z,71.84
2023-03-13T11:51:06.556Z,71.23
2023-03-13T11:52:06.549Z,70.96
2023-03-13T11:53:06.548Z,71.26
2023-03-13T11:54:06.487Z,70.93
2023-03-13T11:55:06.459Z,71.03
2023-03-13T11:56:06.452Z,70.42
2023-03-13T11:57:06.489Z,70.93
2023-03-13T11:58:06.428Z,70.42
2023-03-13T11:59:06.453Z,69.71
2023-03-13T12:00:06.425Z,70.02
2023-03-13T12:01:06.472Z,69.62
2023-03-13T12:02:06.416Z,69.11
2023-03-13T12:03:06.475Z,69.42
2023-03-13T12:04:06.376Z,69.31
2023-03-13T12:05:06.389Z,69.51
2023-03-13T12:06:13.176Z,68.98
2023-03-13T12:07:07.340Z,68.67
2023-03-13T12:08:06.319Z,68.57
2023-03-13T12:09:06.461Z,68.77
2023-03-13T12:10:06.299Z,68.77
2023-03-13T12:11:06.326Z,68.27
2023-03-13T12:12:06.272Z,68.07
2023-03-13T12:13:06.262Z,68.37
2023-03-13T12:14:06.253Z,67.76
2023-03-13T12:15:08.280Z,67.56
2023-03-13T12:16:06.372Z,67.56
2023-03-13T12:17:06.224Z,67.16
2023-03-13T12:18:06.222Z,66.65
2023-03-13T12:19:06.259Z,66.75
2023-03-13T12:20:06.190Z,66.96
2023-03-13T12:21:06.217Z,66.75
2023-03-13T12:22:06.212Z,66.86
2023-03-13T12:23:06.158Z,66.65
2023-03-13T12:24:06.249Z,66.65
2023-03-13T12:25:06.728Z,66.65
2023-03-13T12:26:06.668Z,66.55
2023-03-13T12:27:06.126Z,66.55
2023-03-13T12:28:06.167Z,66.65
2023-03-13T12:29:06.091Z,66.35
2023-03-13T12:30:06.082Z,66.35
2023-03-13T12:31:06.112Z,66.55
2023-03-13T12:32:06.161Z,66.55
2023-03-13T12:33:06.137Z,66.35
2023-03-13T12:34:06.047Z,66.05
2023-03-13T12:35:07.745Z,66.35
2023-03-13T12:36:06.070Z,66.65
2023-03-13T12:37:06.004Z,66.75
2023-03-13T12:38:06.005Z,66.45
2023-03-13T12:39:05.995Z,66.35
2023-03-13T12:40:05.976Z,66.25
2023-03-13T12:41:06.000Z,66.55
2023-03-13T12:42:06.011Z,66.65
2023-03-13T12:43:05.942Z,66.05
2023-03-13T12:44:09.274Z,65.44
2023-03-13T12:45:05.916Z,65.75
2023-03-13T12:46:06.072Z,65.54
2023-03-13T12:47:05.914Z,64.64
2023-03-13T12:48:06.215Z,64.84
2023-03-13T12:49:05.879Z,64.84
2023-03-13T12:50:05.881Z,63.93
2023-03-13T12:51:05.858Z,63.82
2023-03-13T12:52:05.847Z,63.62